sensor_id;sensor_type;location;lat;lon;timestamp;pressure;altitude;pressure_sealevel;temperature;humidity
7075;BME280;3578;51.568;6.932;2023-09-19T00:00:17;52528.69;;;-144.14;100.00
7075;BME280;3578;51.568;6.932;2023-09-19T00:02:48;52546.72;;;-144.14;100.00
7075;BME280;3578;51.568;6.932;2023-09-19T00:05:18;52534.69;;;-144.14;100.00
7075;BME280;3578;51.568;6.932;2023-09-19T00:07:50;52506.63;;;-144.14;100.00
7075;BME280;3578;51.568;6.932;2023-09-19T00:10:19;52536.69;;;-144.14;100.00
7075;BME280;3578;51.568;6.932;2023-09-19T00:12:48;52512.66;;;-144.14;100.00
7075;BME280;3578;51.568;6.932;2023-09-19T00:15:17;52500.63;;;-144.14;100.00
7075;BME280;3578;51.568;6.932;2023-09-19T00:17:44;52506.63;;;-144.14;100.00
7075;BME280;3578;51.568;6.932;2023-09-19T00:20:13;52530.69;;;-144.14;100.00
7075;BME280;3578;51.568;6.932;2023-09-19T00:22:43;52488.59;;;-144.14;100.00
7075;BME280;3578;51.568;6.932;2023-09-19T00:25:11;52530.69;;;-144.14;100.00
7075;BME280;3578;51.568;6.932;2023-09-19T00:27:41;52500.63;;;-144.14;100.00
7075;BME280;3578;51.568;6.932;2023-09-19T00:30:12;52472.56;;;-144.14;100.00
7075;BME280;3578;51.568;6.932;2023-09-19T00:32:42;52486.59;;;-144.14;100.00
7075;BME280;3578;51.568;6.932;2023-09-19T00:35:10;52504.63;;;-144.14;100.00
7075;BME280;3578;51.568;6.932;2023-09-19T00:37:37;52504.63;;;-144.14;100.00
7075;BME280;3578;51.568;6.932;2023-09-19T00:40:07;52482.59;;;-144.14;100.00
7075;BME280;3578;51.568;6.932;2023-09-19T00:42:38;52502.63;;;-144.14;100.00
7075;BME280;3578;51.568;6.932;2023-09-19T00:45:07;52484.59;;;-144.14;100.00
7075;BME280;3578;51.568;6.932;2023-09-19T00:47:38;52516.66;;;-144.14;100.00
7075;BME280;3578;51.568;6.932;2023-09-19T00:50:08;52508.63;;;-144.14;100.00
7075;BME280;3578;51.568;6.932;2023-09-19T00:52:37;52516.66;;;-144.14;100.00
7075;BME280;3578;51.568;6.932;2023-09-19T00:55:07;52532.69;;;-144.14;100.00
7075;BME280;3578;51.568;6.932;2023-09-19T00:57:35;52514.66;;;-144.14;100.00
7075;BME280;3578;51.568;6.932;2023-09-19T01:00:05;52476.59;;;-144.14;100.00
7075;BME280;3578;51.568;6.932;2023-09-19T01:02:38;52516.66;;;-144.14;100.00
7075;BME280;3578;51.568;6.932;2023-09-19T01:05:05;52458.53;;;-144.14;100.00
7075;BME280;3578;51.568;6.932;2023-09-19T01:07:33;52528.69;;;-144.14;100.00
7075;BME280;3578;51.568;6.932;2023-09-19T01:10:00;52462.56;;;-144.14;100.00
7075;BME280;3578;51.568;6.932;2023-09-19T01:12:38;52510.66;;;-144.14;100.00
7075;BME280;3578;51.568;6.932;2023-09-19T01:15:21;52532.69;;;-144.14;100.00
7075;BME280;3578;51.568;6.932;2023-09-19T01:18:08;52494.63;;;-144.14;100.00
7075;BME280;3578;51.568;6.932;2023-09-19T01:20:41;52532.69;;;-144.14;100.00
7075;BME280;3578;51.568;6.932;2023-09-19T01:23:18;52498.63;;;-144.14;100.00
7075;BME280;3578;51.568;6.932;2023-09-19T01:26:14;52486.59;;;-144.14;100.00
7075;BME280;3578;51.568;6.932;2023-09-19T01:29:13;52492.59;;;-144.14;100.00
7075;BME280;3578;51.568;6.932;2023-09-19T01:31:47;52476.59;;;-144.14;100.00
7075;BME280;3578;51.568;6.932;2023-09-19T01:34:16;52484.59;;;-144.14;100.00
7075;BME280;3578;51.568;6.932;2023-09-19T01:36:44;52476.59;;;-144.14;100.00
7075;BME280;3578;51.568;6.932;2023-09-19T01:39:12;52466.56;;;-144.14;100.00
7075;BME280;3578;51.568;6.932;2023-09-19T01:41:56;52466.56;;;-144.14;100.00
7075;BME280;3578;51.568;6.932;2023-09-19T01:44:35;52508.63;;;-144.14;100.00
7075;BME280;3578;51.568;6.932;2023-09-19T01:47:16;52448.53;;;-144.14;100.00
7075;BME280;3578;51.568;6.932;2023-09-19T01:49:55;52314.28;;;-144.14;100.00
7075;BME280;3578;51.568;6.932;2023-09-19T01:52:29;52420.47;;;-144.14;100.00
7075;BME280;3578;51.568;6.932;2023-09-19T01:55:05;52492.59;;;-144.14;100.00
7075;BME280;3578;51.568;6.932;2023-09-19T01:57:39;52464.56;;;-144.14;100.00
7075;BME280;3578;51.568;6.932;2023-09-19T02:00:11;52474.56;;;-144.14;100.00
7075;BME280;3578;51.568;6.932;2023-09-19T02:02:43;52482.59;;;-144.14;100.00
7075;BME280;3578;51.568;6.932;2023-09-19T02:05:11;52496.63;;;-144.14;100.00
7075;BME280;3578;51.568;6.932;2023-09-19T02:07:39;52440.50;;;-144.14;100.00
7075;BME280;3578;51.568;6.932;2023-09-19T02:10:07;52452.53;;;-144.14;100.00
7075;BME280;3578;51.568;6.932;2023-09-19T02:12:35;52464.56;;;-144.14;100.00
7075;BME280;3578;51.568;6.932;2023-09-19T02:15:05;52464.56;;;-144.14;100.00
7075;BME280;3578;51.568;6.932;2023-09-19T02:17:33;52456.53;;;-144.14;100.00
7075;BME280;3578;51.568;6.932;2023-09-19T02:20:01;52438.50;;;-144.14;100.00
7075;BME280;3578;51.568;6.932;2023-09-19T02:22:36;52456.53;;;-144.14;100.00
7075;BME280;3578;51.568;6.932;2023-09-19T02:25:05;52458.53;;;-144.14;100.00
7075;BME280;3578;51.568;6.932;2023-09-19T02:27:33;52478.59;;;-144.14;100.00
7075;BME280;3578;51.568;6.932;2023-09-19T02:30:00;52480.59;;;-144.14;100.00
7075;BME280;3578;51.568;6.932;2023-09-19T02:32:30;52480.59;;;-144.14;100.00
7075;BME280;3578;51.568;6.932;2023-09-19T02:34:57;52480.59;;;-144.14;100.00
7075;BME280;3578;51.568;6.932;2023-09-19T02:37:26;52466.56;;;-144.14;100.00
7075;BME280;3578;51.568;6.932;2023-09-19T02:39:53;52456.53;;;-144.14;100.00
7075;BME280;3578;51.568;6.932;2023-09-19T02:42:20;52484.59;;;-144.14;100.00
7075;BME280;3578;51.568;6.932;2023-09-19T02:44:47;52484.59;;;-144.14;100.00
7075;BME280;3578;51.568;6.932;2023-09-19T02:47:14;52472.56;;;-144.14;100.00
7075;BME280;3578;51.568;6.932;2023-09-19T02:49:42;52466.56;;;-144.14;100.00
7075;BME280;3578;51.568;6.932;2023-09-19T02:52:09;52454.53;;;-144.14;100.00
7075;BME280;3578;51.568;6.932;2023-09-19T02:54:38;52480.59;;;-144.14;100.00
7075;BME280;3578;51.568;6.932;2023-09-19T02:57:06;52438.50;;;-144.14;100.00
7075;BME280;3578;51.568;6.932;2023-09-19T02:59:34;52452.53;;;-144.14;100.00
7075;BME280;3578;51.568;6.932;2023-09-19T03:02:03;52438.50;;;-144.14;100.00
7075;BME280;3578;51.568;6.932;2023-09-19T03:04:31;52464.56;;;-144.14;100.00
7075;BME280;3578;51.568;6.932;2023-09-19T03:06:58;52456.53;;;-144.14;100.00
7075;BME280;3578;51.568;6.932;2023-09-19T03:09:26;52478.59;;;-144.14;100.00
7075;BME280;3578;51.568;6.932;2023-09-19T03:11:55;52476.59;;;-144.14;100.00
7075;BME280;3578;51.568;6.932;2023-09-19T03:14:22;52496.63;;;-144.14;100.00
7075;BME280;3578;51.568;6.932;2023-09-19T03:16:49;52486.59;;;-144.14;100.00
7075;BME280;3578;51.568;6.932;2023-09-19T03:19:18;52476.59;;;-144.14;100.00
7075;BME280;3578;51.568;6.932;2023-09-19T03:21:46;52498.63;;;-144.14;100.00
7075;BME280;3578;51.568;6.932;2023-09-19T03:24:16;52460.56;;;-144.14;100.00
7075;BME280;3578;51.568;6.932;2023-09-19T03:26:43;52500.63;;;-144.14;100.00
7075;BME280;3578;51.568;6.932;2023-09-19T03:29:13;52494.63;;;-144.14;100.00
7075;BME280;3578;51.568;6.932;2023-09-19T03:31:40;52456.53;;;-144.14;100.00
7075;BME280;3578;51.568;6.932;2023-09-19T03:34:07;52440.50;;;-144.14;100.00
7075;BME280;3578;51.568;6.932;2023-09-19T03:36:36;52452.53;;;-144.14;100.00
7075;BME280;3578;51.568;6.932;2023-09-19T03:39:03;52422.47;;;-144.14;100.00
7075;BME280;3578;51.568;6.932;2023-09-19T03:41:31;52456.53;;;-144.14;100.00
7075;BME280;3578;51.568;6.932;2023-09-19T03:43:58;52428.50;;;-144.14;100.00
7075;BME280;3578;51.568;6.932;2023-09-19T03:46:27;52406.44;;;-144.14;100.00
7075;BME280;3578;51.568;6.932;2023-09-19T03:48:55;52474.56;;;-144.14;100.00
7075;BME280;3578;51.568;6.932;2023-09-19T03:51:23;52440.50;;;-144.14;100.00
7075;BME280;3578;51.568;6.932;2023-09-19T03:53:50;52416.47;;;-144.14;100.00
7075;BME280;3578;51.568;6.932;2023-09-19T03:56:17;52424.47;;;-144.14;100.00
7075;BME280;3578;51.568;6.932;2023-09-19T03:58:44;52432.50;;;-144.14;100.00
7075;BME280;3578;51.568;6.932;2023-09-19T04:01:10;52444.53;;;-144.14;100.00
7075;BME280;3578;51.568;6.932;2023-09-19T04:03:40;52432.50;;;-144.14;100.00
7075;BME280;3578;51.568;6.932;2023-09-19T04:06:13;52454.53;;;-144.14;100.00
7075;BME280;3578;51.568;6.932;2023-09-19T04:08:40;52434.50;;;-144.14;100.00
7075;BME280;3578;51.568;6.932;2023-09-19T04:11:07;52426.50;;;-144.14;100.00
7075;BME280;3578;51.568;6.932;2023-09-19T04:13:34;52436.50;;;-144.14;100.00
7075;BME280;3578;51.568;6.932;2023-09-19T04:16:02;52434.50;;;-144.14;100.00
7075;BME280;3578;51.568;6.932;2023-09-19T04:18:29;52430.50;;;-144.14;100.00
7075;BME280;3578;51.568;6.932;2023-09-19T04:21:00;52456.53;;;-144.14;100.00
7075;BME280;3578;51.568;6.932;2023-09-19T04:23:28;52434.50;;;-144.14;100.00
7075;BME280;3578;51.568;6.932;2023-09-19T04:25:55;52424.47;;;-144.14;100.00
7075;BME280;3578;51.568;6.932;2023-09-19T04:28:22;52432.50;;;-144.14;100.00
7075;BME280;3578;51.568;6.932;2023-09-19T04:30:49;52398.44;;;-144.14;100.00
7075;BME280;3578;51.568;6.932;2023-09-19T04:33:16;52440.50;;;-144.14;100.00
7075;BME280;3578;51.568;6.932;2023-09-19T04:35:44;52440.50;;;-144.14;100.00
7075;BME280;3578;51.568;6.932;2023-09-19T04:38:12;52450.53;;;-144.14;100.00
7075;BME280;3578;51.568;6.932;2023-09-19T04:40:40;52458.53;;;-144.14;100.00
7075;BME280;3578;51.568;6.932;2023-09-19T04:43:07;52438.50;;;-144.14;100.00
7075;BME280;3578;51.568;6.932;2023-09-19T04:45:34;52476.59;;;-144.14;100.00
7075;BME280;3578;51.568;6.932;2023-09-19T04:48:01;52478.59;;;-144.14;100.00
7075;BME280;3578;51.568;6.932;2023-09-19T04:50:29;52410.47;;;-144.14;100.00
7075;BME280;3578;51.568;6.932;2023-09-19T04:52:56;52420.47;;;-144.14;100.00
7075;BME280;3578;51.568;6.932;2023-09-19T04:55:24;52424.47;;;-144.14;100.00
7075;BME280;3578;51.568;6.932;2023-09-19T04:57:52;52414.47;;;-144.14;100.00
7075;BME280;3578;51.568;6.932;2023-09-19T05:00:22;52426.50;;;-144.14;100.00
7075;BME280;3578;51.568;6.932;2023-09-19T05:02:50;52448.53;;;-144.14;100.00
7075;BME280;3578;51.568;6.932;2023-09-19T05:05:18;52464.56;;;-144.14;100.00
7075;BME280;3578;51.568;6.932;2023-09-19T05:07:46;52424.47;;;-144.14;100.00
7075;BME280;3578;51.568;6.932;2023-09-19T05:10:13;52416.47;;;-144.14;100.00
7075;BME280;3578;51.568;6.932;2023-09-19T05:12:43;52448.53;;;-144.14;100.00
7075;BME280;3578;51.568;6.932;2023-09-19T05:15:12;52412.47;;;-144.14;100.00
7075;BME280;3578;51.568;6.932;2023-09-19T05:17:41;52468.56;;;-144.14;100.00
7075;BME280;3578;51.568;6.932;2023-09-19T05:20:09;52464.56;;;-144.14;100.00
7075;BME280;3578;51.568;6.932;2023-09-19T05:22:39;52456.53;;;-144.14;100.00
7075;BME280;3578;51.568;6.932;2023-09-19T05:25:07;52476.59;;;-144.14;100.00
7075;BME280;3578;51.568;6.932;2023-09-19T05:27:34;52476.59;;;-144.14;100.00
7075;BME280;3578;51.568;6.932;2023-09-19T05:30:04;52464.56;;;-144.14;100.00
7075;BME280;3578;51.568;6.932;2023-09-19T05:32:32;52428.50;;;-144.14;100.00
7075;BME280;3578;51.568;6.932;2023-09-19T05:34:59;52424.47;;;-144.14;100.00
7075;BME280;3578;51.568;6.932;2023-09-19T05:37:26;52442.53;;;-144.14;100.00
7075;BME280;3578;51.568;6.932;2023-09-19T05:39:53;52430.50;;;-144.14;100.00
7075;BME280;3578;51.568;6.932;2023-09-19T05:42:20;52482.59;;;-144.14;100.00
7075;BME280;3578;51.568;6.932;2023-09-19T05:44:47;52464.56;;;-144.14;100.00
7075;BME280;3578;51.568;6.932;2023-09-19T05:47:15;52490.59;;;-144.14;100.00
7075;BME280;3578;51.568;6.932;2023-09-19T05:49:42;52472.56;;;-144.14;100.00
7075;BME280;3578;51.568;6.932;2023-09-19T05:52:09;52464.56;;;-144.14;100.00
7075;BME280;3578;51.568;6.932;2023-09-19T05:54:36;52532.69;;;-144.14;100.00
7075;BME280;3578;51.568;6.932;2023-09-19T05:57:04;52442.53;;;-144.14;100.00
7075;BME280;3578;51.568;6.932;2023-09-19T05:59:31;52512.66;;;-144.14;100.00
7075;BME280;3578;51.568;6.932;2023-09-19T06:01:59;52496.63;;;-144.14;100.00
7075;BME280;3578;51.568;6.932;2023-09-19T06:04:27;52518.66;;;-144.14;100.00
7075;BME280;3578;51.568;6.932;2023-09-19T06:06:56;52480.59;;;-144.14;100.00
7075;BME280;3578;51.568;6.932;2023-09-19T06:09:24;52518.66;;;-144.14;100.00
7075;BME280;3578;51.568;6.932;2023-09-19T06:11:53;52520.66;;;-144.14;100.00
7075;BME280;3578;51.568;6.932;2023-09-19T06:14:21;52504.63;;;-144.14;100.00
7075;BME280;3578;51.568;6.932;2023-09-19T06:16:50;52516.66;;;-144.14;100.00
7075;BME280;3578;51.568;6.932;2023-09-19T06:19:19;52488.59;;;-144.14;100.00
7075;BME280;3578;51.568;6.932;2023-09-19T06:21:49;52520.66;;;-144.14;100.00
7075;BME280;3578;51.568;6.932;2023-09-19T06:24:16;52546.72;;;-144.14;100.00
7075;BME280;3578;51.568;6.932;2023-09-19T06:26:45;52518.66;;;-144.14;100.00
7075;BME280;3578;51.568;6.932;2023-09-19T06:29:13;52536.69;;;-144.14;100.00
7075;BME280;3578;51.568;6.932;2023-09-19T06:31:40;52536.69;;;-144.14;100.00
7075;BME280;3578;51.568;6.932;2023-09-19T06:34:07;52540.69;;;-144.14;100.00
7075;BME280;3578;51.568;6.932;2023-09-19T06:36:34;52540.69;;;-144.14;100.00
7075;BME280;3578;51.568;6.932;2023-09-19T06:39:03;52562.75;;;-144.14;100.00
7075;BME280;3578;51.568;6.932;2023-09-19T06:41:32;52564.75;;;-144.14;100.00
7075;BME280;3578;51.568;6.932;2023-09-19T06:43:59;52552.72;;;-144.14;100.00
7075;BME280;3578;51.568;6.932;2023-09-19T06:46:26;52554.72;;;-144.14;100.00
7075;BME280;3578;51.568;6.932;2023-09-19T06:48:58;52532.69;;;-144.14;100.00
7075;BME280;3578;51.568;6.932;2023-09-19T06:51:25;52546.72;;;-144.14;100.00
7075;BME280;3578;51.568;6.932;2023-09-19T06:53:52;52556.72;;;-144.14;100.00
7075;BME280;3578;51.568;6.932;2023-09-19T06:56:21;52568.75;;;-144.14;100.00
7075;BME280;3578;51.568;6.932;2023-09-19T06:58:50;52562.75;;;-144.14;100.00
7075;BME280;3578;51.568;6.932;2023-09-19T07:01:17;52552.72;;;-144.14;100.00
7075;BME280;3578;51.568;6.932;2023-09-19T07:03:44;52548.72;;;-144.14;100.00
7075;BME280;3578;51.568;6.932;2023-09-19T07:06:12;52584.78;;;-144.14;100.00
7075;BME280;3578;51.568;6.932;2023-09-19T07:08:39;52566.75;;;-144.14;100.00
7075;BME280;3578;51.568;6.932;2023-09-19T07:11:06;52554.72;;;-144.14;100.00
7075;BME280;3578;51.568;6.932;2023-09-19T07:13:34;52592.78;;;-144.14;100.00
7075;BME280;3578;51.568;6.932;2023-09-19T07:16:02;52616.84;;;-144.14;100.00
7075;BME280;3578;51.568;6.932;2023-09-19T07:18:29;52606.81;;;-144.14;100.00
7075;BME280;3578;51.568;6.932;2023-09-19T07:20:58;52616.84;;;-144.14;100.00
7075;BME280;3578;51.568;6.932;2023-09-19T07:23:31;52584.78;;;-144.14;100.00
7075;BME280;3578;51.568;6.932;2023-09-19T07:26:00;52572.75;;;-144.14;100.00
7075;BME280;3578;51.568;6.932;2023-09-19T07:28:30;52596.81;;;-144.14;100.00
7075;BME280;3578;51.568;6.932;2023-09-19T07:31:02;52626.84;;;-144.14;100.00
7075;BME280;3578;51.568;6.932;2023-09-19T07:33:30;52650.91;;;-144.14;100.00
7075;BME280;3578;51.568;6.932;2023-09-19T07:35:57;52624.84;;;-144.14;100.00
7075;BME280;3578;51.568;6.932;2023-09-19T07:38:25;52622.84;;;-144.14;100.00
7075;BME280;3578;51.568;6.932;2023-09-19T07:40:52;52626.84;;;-144.14;100.00
7075;BME280;3578;51.568;6.932;2023-09-19T07:43:20;52626.84;;;-144.14;100.00
7075;BME280;3578;51.568;6.932;2023-09-19T07:45:48;52624.84;;;-144.14;100.00
7075;BME280;3578;51.568;6.932;2023-09-19T07:48:16;52638.88;;;-144.14;100.00
7075;BME280;3578;51.568;6.932;2023-09-19T07:50:43;52680.97;;;-144.14;100.00
7075;BME280;3578;51.568;6.932;2023-09-19T07:53:11;52652.91;;;-144.14;100.00
7075;BME280;3578;51.568;6.932;2023-09-19T07:55:39;52660.91;;;-144.14;100.00
7075;BME280;3578;51.568;6.932;2023-09-19T07:58:06;52648.91;;;-144.14;100.00
7075;BME280;3578;51.568;6.932;2023-09-19T08:00:33;52644.88;;;-144.14;100.00
7075;BME280;3578;51.568;6.932;2023-09-19T08:03:01;52642.88;;;-144.14;100.00
7075;BME280;3578;51.568;6.932;2023-09-19T08:05:30;52680.97;;;-144.14;100.00
7075;BME280;3578;51.568;6.932;2023-09-19T08:07:59;52678.94;;;-144.14;100.00
7075;BME280;3578;51.568;6.932;2023-09-19T08:10:26;52713.00;;;-144.14;100.00
7075;BME280;3578;51.568;6.932;2023-09-19T08:13:00;52703.00;;;-144.14;100.00
7075;BME280;3578;51.568;6.932;2023-09-19T08:15:28;52713.00;;;-144.14;100.00
7075;BME280;3578;51.568;6.932;2023-09-19T08:17:55;52733.06;;;-144.14;100.00
7075;BME280;3578;51.568;6.932;2023-09-19T08:20:21;52753.09;;;-144.14;100.00
7075;BME280;3578;51.568;6.932;2023-09-19T08:22:50;52723.03;;;-144.14;100.00
7075;BME280;3578;51.568;6.932;2023-09-19T08:25:20;52723.03;;;-144.14;100.00
7075;BME280;3578;51.568;6.932;2023-09-19T08:27:47;52745.06;;;-144.14;100.00
7075;BME280;3578;51.568;6.932;2023-09-19T08:30:15;52731.06;;;-144.14;100.00
7075;BME280;3578;51.568;6.932;2023-09-19T08:32:43;52757.09;;;-144.14;100.00
7075;BME280;3578;51.568;6.932;2023-09-19T08:35:10;52731.06;;;-144.14;100.00
7075;BME280;3578;51.568;6.932;2023-09-19T08:37:37;52767.13;;;-144.14;100.00
7075;BME280;3578;51.568;6.932;2023-09-19T08:40:07;52785.16;;;-144.14;100.00
7075;BME280;3578;51.568;6.932;2023-09-19T08:42:48;52819.22;;;-144.14;100.00
7075;BME280;3578;51.568;6.932;2023-09-19T08:45:16;52789.16;;;-144.14;99.15
7075;BME280;3578;51.568;6.932;2023-09-19T08:47:48;52636.88;;;-144.14;98.92
7075;BME280;3578;51.568;6.932;2023-09-19T08:50:23;52813.22;;;-144.14;98.99
7075;BME280;3578;51.568;6.932;2023-09-19T08:52:55;52793.16;;;-144.14;99.10
7075;BME280;3578;51.568;6.932;2023-09-19T08:55:28;52713.00;;;-144.14;98.63
7075;BME280;3578;51.568;6.932;2023-09-19T08:58:00;52795.16;;;-144.14;97.34
7075;BME280;3578;51.568;6.932;2023-09-19T09:00:29;52827.22;;;-144.14;97.50
7075;BME280;3578;51.568;6.932;2023-09-19T09:02:58;52861.31;;;-144.14;96.49
7075;BME280;3578;51.568;6.932;2023-09-19T09:05:27;52793.16;;;-144.14;96.17
7075;BME280;3578;51.568;6.932;2023-09-19T09:07:54;52835.25;;;-144.14;95.79
7075;BME280;3578;51.568;6.932;2023-09-19T09:10:22;52825.22;;;-144.14;94.25
7075;BME280;3578;51.568;6.932;2023-09-19T09:12:52;52871.31;;;-144.14;94.72
7075;BME280;3578;51.568;6.932;2023-09-19T09:15:22;52855.28;;;-144.14;92.82
7075;BME280;3578;51.568;6.932;2023-09-19T09:17:49;52903.38;;;-144.14;93.07
7075;BME280;3578;51.568;6.932;2023-09-19T09:20:18;52913.41;;;-144.14;91.24
7075;BME280;3578;51.568;6.932;2023-09-19T09:22:52;52903.38;;;-144.14;92.43
7075;BME280;3578;51.568;6.932;2023-09-19T09:25:21;52933.44;;;-144.14;89.69
7075;BME280;3578;51.568;6.932;2023-09-19T09:28:01;52939.44;;;-144.14;89.67
7075;BME280;3578;51.568;6.932;2023-09-19T09:30:35;52925.44;;;-144.14;90.79
7075;BME280;3578;51.568;6.932;2023-09-19T09:33:10;52951.47;;;-144.14;89.37
7075;BME280;3578;51.568;6.932;2023-09-19T09:35:38;52911.41;;;-144.14;89.93
7075;BME280;3578;51.568;6.932;2023-09-19T09:38:13;52995.56;;;-144.14;89.41
7075;BME280;3578;51.568;6.932;2023-09-19T09:40:47;52969.50;;;-144.14;86.37
7075;BME280;3578;51.568;6.932;2023-09-19T09:43:33;52957.50;;;-144.14;85.88
7075;BME280;3578;51.568;6.932;2023-09-19T09:46:14;52935.44;;;-144.14;86.71
7075;BME280;3578;51.568;6.932;2023-09-19T09:49:01;52957.50;;;-144.14;87.33
7075;BME280;3578;51.568;6.932;2023-09-19T09:52:00;52965.50;;;-144.14;87.55
7075;BME280;3578;51.568;6.932;2023-09-19T09:54:34;53015.59;;;-144.14;87.52
7075;BME280;3578;51.568;6.932;2023-09-19T09:57:04;52975.53;;;-144.14;88.34
7075;BME280;3578;51.568;6.932;2023-09-19T09:59:51;52989.56;;;-144.14;89.33
7075;BME280;3578;51.568;6.932;2023-09-19T10:02:20;52967.50;;;-144.14;87.34
7075;BME280;3578;51.568;6.932;2023-09-19T10:04:52;52969.50;;;-144.14;85.40
7075;BME280;3578;51.568;6.932;2023-09-19T10:07:30;52997.56;;;-144.14;86.36
7075;BME280;3578;51.568;6.932;2023-09-19T10:10:02;52973.53;;;-144.14;86.81
7075;BME280;3578;51.568;6.932;2023-09-19T10:12:45;52989.56;;;-144.14;85.42
7075;BME280;3578;51.568;6.932;2023-09-19T10:15:16;52993.56;;;-144.14;86.23
7075;BME280;3578;51.568;6.932;2023-09-19T10:17:47;52963.50;;;-144.14;86.97
7075;BME280;3578;51.568;6.932;2023-09-19T10:20:16;52953.47;;;-144.14;88.47
7075;BME280;3578;51.568;6.932;2023-09-19T10:23:00;52933.44;;;-144.14;89.79
7075;BME280;3578;51.568;6.932;2023-09-19T10:25:29;52965.50;;;-144.14;89.46
7075;BME280;3578;51.568;6.932;2023-09-19T10:27:59;53013.59;;;-144.14;90.33
7075;BME280;3578;51.568;6.932;2023-09-19T10:30:31;52947.47;;;-144.14;89.31
7075;BME280;3578;51.568;6.932;2023-09-19T10:33:02;52969.50;;;-144.14;88.50
7075;BME280;3578;51.568;6.932;2023-09-19T10:35:29;53017.59;;;-144.14;87.36
7075;BME280;3578;51.568;6.932;2023-09-19T10:38:01;53073.72;;;-144.14;86.12
7075;BME280;3578;51.568;6.932;2023-09-19T10:40:28;53113.78;;;-144.14;85.08
7075;BME280;3578;51.568;6.932;2023-09-19T10:43:02;53077.72;;;-144.14;82.78
7075;BME280;3578;51.568;6.932;2023-09-19T10:45:34;53077.72;;;-144.14;82.62
7075;BME280;3578;51.568;6.932;2023-09-19T10:48:02;53045.66;;;-144.14;81.22
7075;BME280;3578;51.568;6.932;2023-09-19T10:50:35;53039.66;;;-144.14;83.04
7075;BME280;3578;51.568;6.932;2023-09-19T10:53:05;53097.75;;;-144.14;83.38
7075;BME280;3578;51.568;6.932;2023-09-19T10:55:34;53095.75;;;-144.14;83.50
7075;BME280;3578;51.568;6.932;2023-09-19T10:58:03;53115.81;;;-144.14;81.82
7075;BME280;3578;51.568;6.932;2023-09-19T11:00:54;53105.78;;;-144.14;80.57
7075;BME280;3578;51.568;6.932;2023-09-19T11:03:23;53117.81;;;-144.14;80.35
7075;BME280;3578;51.568;6.932;2023-09-19T11:06:04;53147.88;;;-144.14;78.05
7075;BME280;3578;51.568;6.932;2023-09-19T11:08:56;53165.91;;;-144.14;80.38
7075;BME280;3578;51.568;6.932;2023-09-19T11:11:44;53119.81;;;-144.14;79.35
7075;BME280;3578;51.568;6.932;2023-09-19T11:14:39;53117.81;;;-144.14;80.53
7075;BME280;3578;51.568;6.932;2023-09-19T11:17:41;53081.72;;;-144.14;81.32
7075;BME280;3578;51.568;6.932;2023-09-19T11:20:20;53149.88;;;-144.14;79.67
7075;BME280;3578;51.568;6.932;2023-09-19T11:23:23;53145.84;;;-144.14;81.87
7075;BME280;3578;51.568;6.932;2023-09-19T11:25:53;53127.81;;;-144.14;81.50
7075;BME280;3578;51.568;6.932;2023-09-19T11:28:33;53179.94;;;-144.14;80.32
7075;BME280;3578;51.568;6.932;2023-09-19T11:31:50;53222.00;;;-144.14;78.66
7075;BME280;3578;51.568;6.932;2023-09-19T11:38:00;53205.97;;;-144.14;79.63
7075;BME280;3578;51.568;6.932;2023-09-19T11:40:45;53201.97;;;-144.14;79.90
7075;BME280;3578;51.568;6.932;2023-09-19T11:43:31;53248.06;;;-144.14;77.10
7075;BME280;3578;51.568;6.932;2023-09-19T11:46:09;53197.97;;;-144.14;76.64
7075;BME280;3578;51.568;6.932;2023-09-19T11:48:38;53222.00;;;-144.14;75.91
7075;BME280;3578;51.568;6.932;2023-09-19T11:51:18;53210.00;;;-144.14;79.29
7075;BME280;3578;51.568;6.932;2023-09-19T11:53:48;53210.00;;;-144.14;77.53
7075;BME280;3578;51.568;6.932;2023-09-19T11:56:17;53226.03;;;-144.14;79.03
7075;BME280;3578;51.568;6.932;2023-09-19T11:58:46;53226.03;;;-144.14;77.73
7075;BME280;3578;51.568;6.932;2023-09-19T12:01:20;53210.00;;;-144.14;78.97
7075;BME280;3578;51.568;6.932;2023-09-19T12:03:54;53218.00;;;-144.14;78.20
7075;BME280;3578;51.568;6.932;2023-09-19T12:06:24;53157.88;;;-144.14;76.58
7075;BME280;3578;51.568;6.932;2023-09-19T12:08:53;53214.00;;;-144.14;76.33
7075;BME280;3578;51.568;6.932;2023-09-19T12:11:22;53214.00;;;-144.14;78.58
7075;BME280;3578;51.568;6.932;2023-09-19T12:13:50;53173.91;;;-144.14;79.27
7075;BME280;3578;51.568;6.932;2023-09-19T12:16:20;53205.97;;;-144.14;79.66
7075;BME280;3578;51.568;6.932;2023-09-19T12:18:51;53258.09;;;-144.14;76.89
7075;BME280;3578;51.568;6.932;2023-09-19T12:21:28;53254.06;;;-144.14;74.18
7075;BME280;3578;51.568;6.932;2023-09-19T12:24:11;53270.13;;;-144.14;75.91
7075;BME280;3578;51.568;6.932;2023-09-19T12:26:43;53278.13;;;-144.14;71.51
7075;BME280;3578;51.568;6.932;2023-09-19T12:29:14;53338.25;;;-144.14;71.60
7075;BME280;3578;51.568;6.932;2023-09-19T12:31:53;53334.25;;;-144.14;71.98
7075;BME280;3578;51.568;6.932;2023-09-19T12:34:24;53300.19;;;-144.14;72.93
7075;BME280;3578;51.568;6.932;2023-09-19T12:37:10;53304.19;;;-144.14;73.11
7075;BME280;3578;51.568;6.932;2023-09-19T12:39:47;53302.19;;;-144.14;71.52
7075;BME280;3578;51.568;6.932;2023-09-19T12:42:18;53274.13;;;-144.14;72.52
7075;BME280;3578;51.568;6.932;2023-09-19T12:44:47;53250.06;;;-144.14;71.80
7075;BME280;3578;51.568;6.932;2023-09-19T12:47:18;53336.25;;;-144.14;71.71
7075;BME280;3578;51.568;6.932;2023-09-19T12:50:06;53358.28;;;-144.14;73.75
7075;BME280;3578;51.568;6.932;2023-09-19T12:52:42;53346.28;;;-144.14;68.56
7075;BME280;3578;51.568;6.932;2023-09-19T12:55:21;53394.38;;;-144.14;65.93
7075;BME280;3578;51.568;6.932;2023-09-19T12:58:01;53394.38;;;-144.14;66.37
7075;BME280;3578;51.568;6.932;2023-09-19T13:00:34;53354.28;;;-144.14;66.54
7075;BME280;3578;51.568;6.932;2023-09-19T13:03:15;53354.28;;;-144.14;71.27
7075;BME280;3578;51.568;6.932;2023-09-19T13:05:53;53330.25;;;-144.14;69.65
7075;BME280;3578;51.568;6.932;2023-09-19T13:08:25;53346.28;;;-144.14;70.09
7075;BME280;3578;51.568;6.932;2023-09-19T13:11:09;53376.34;;;-144.14;72.88
7075;BME280;3578;51.568;6.932;2023-09-19T13:13:40;53402.38;;;-144.14;67.36
7075;BME280;3578;51.568;6.932;2023-09-19T13:16:08;53370.31;;;-144.14;67.30